Time;durP1;ratioP1;P1;durP2;ratioP2;P2;SDS_P1;SDS_P2;PMS_P1;PMS_P2;Temp;Humidity;BMP_temperature;BMP_pressure;BME280_temperature;BME280_humidity;BME280_pressure;Samples;Min_cycle;Max_cycle;Signal;HPM_P1;HPM_P2
2021/12/19 00:01:16;;;;;;;55.13;25.83;;;;;;;0.15;100.00;99878.53;4924433;29;20919;-87
2021/12/19 00:09:14;;;;;;;44.70;21.00;;;;;;;0.08;100.00;99897.03;4941338;29;20468;-87
2021/12/19 00:11:40;;;;;;;44.57;21.37;;;;;;;-1.20;100.00;99704.34;4943169;29;20445;-85
2021/12/19 00:14:05;;;;;;;43.50;21.23;;;;;;;-3.31;100.00;99323.06;4957171;29;20170;-86
2021/12/19 00:16:34;;;;;;;48.33;21.13;;;;;;;-1.28;100.00;99697.78;4926761;29;20177;-87
2021/12/19 00:19:00;;;;;;;41.13;19.83;;;;;;;-3.52;100.00;99277.38;4922696;29;20181;-87
2021/12/19 00:21:27;;;;;;;50.50;22.20;;;;;;;-1.82;100.00;99582.69;4937763;29;20496;-87
2021/12/19 00:23:54;;;;;;;78.90;33.83;;;;;;;0.51;100.00;99945.03;4950281;29;20272;-87
2021/12/19 00:26:20;;;;;;;46.33;21.47;;;;;;;0.47;100.00;99977.84;4936683;29;20437;-87
2021/12/19 00:28:47;;;;;;;48.10;24.77;;;;;;;-1.38;100.00;99629.03;4945044;29;20937;-87
2021/12/19 00:31:14;;;;;;;67.53;30.40;;;;;;;0.55;100.00;99978.53;4924415;29;20669;-86
2021/12/19 00:33:41;;;;;;;50.63;26.53;;;;;;;0.42;100.00;99948.28;4926776;29;20412;-87
2021/12/19 00:36:09;;;;;;;41.13;19.87;;;;;;;-0.71;100.00;99715.59;4943490;29;20433;-87
2021/12/19 00:38:36;;;;;;;34.97;18.23;;;;;;;-3.13;100.00;99310.81;4932612;29;20450;-89
2021/12/19 00:41:03;;;;;;;33.03;17.07;;;;;;;-2.73;100.00;99401.25;4949098;29;20424;-88
2021/12/19 00:43:36;;;;;;;35.50;16.57;;;;;;;-0.86;100.00;99691.84;4946181;29;20480;-87
2021/12/19 00:46:12;;;;;;;28.90;14.20;;;;;;;-2.06;100.00;99478.69;4947156;29;20422;-88
2021/12/19 00:48:43;;;;;;;24.13;12.67;;;;;;;-1.45;100.00;99583.63;4943459;29;20425;-86
2021/12/19 00:51:12;;;;;;;22.70;12.07;;;;;;;-0.70;100.00;99696.59;4924603;29;20425;-86
2021/12/19 00:53:38;;;;;;;18.97;9.53;;;;;;;-1.45;100.00;99571.22;4942626;29;20401;-86
2021/12/19 00:56:04;;;;;;;18.43;8.83;;;;;;;0.13;100.00;99823.66;4944887;29;20443;-88
2021/12/19 00:58:31;;;;;;;11.53;6.30;;;;;;;-3.20;100.00;99259.00;4945808;29;20428;-87
2021/12/19 01:00:58;;;;;;;15.57;6.70;;;;;;;-1.68;100.00;99498.75;4933614;29;20413;-87
2021/12/19 01:03:25;;;;;;;13.13;6.30;;;;;;;-2.08;100.00;99438.00;4948493;29;20453;-87
2021/12/19 01:05:53;;;;;;;14.27;6.73;;;;;;;-2.12;100.00;99438.47;4951509;29;20443;-87
2021/12/19 01:08:19;;;;;;;13.87;7.10;;;;;;;-2.17;100.00;99424.75;4946789;29;20432;-87
2021/12/19 01:10:48;;;;;;;11.90;5.93;;;;;;;-3.24;100.00;99205.00;4944693;29;20417;-90
2021/12/19 01:13:19;;;;;;;13.57;6.40;;;;;;;1.17;100.00;99964.28;4935580;29;20441;-87
2021/12/19 01:15:46;;;;;;;13.23;6.43;;;;;;;-0.87;100.00;99627.97;4953888;29;20428;-87
2021/12/19 01:18:21;;;;;;;14.57;6.93;;;;;;;-2.64;100.00;99273.31;4950847;29;20421;-86
2021/12/19 01:20:48;;;;;;;15.23;6.90;;;;;;;-0.22;100.00;99686.09;4928773;29;20412;-86
2021/12/19 01:23:14;;;;;;;12.50;6.03;;;;;;;-1.52;100.00;99449.78;4925863;29;21016;-85
2021/12/19 01:25:42;;;;;;;15.47;7.90;;;;;;;-0.64;100.00;99586.19;4942429;29;20415;-86
2021/12/19 01:28:10;;;;;;;14.17;7.53;;;;;;;1.30;100.00;99927.19;4945109;29;20207;-86
2021/12/19 01:30:36;;;;;;;14.30;6.77;;;;;;;-2.67;100.00;99263.13;4942209;29;20447;-85
2021/12/19 01:33:02;;;;;;;15.57;7.20;;;;;;;1.29;100.00;99937.06;4925944;29;20504;-87
2021/12/19 01:35:28;;;;;;;14.33;7.63;;;;;;;-0.25;100.00;99685.84;4943702;29;20184;-86
2021/12/19 01:37:53;;;;;;;13.53;7.13;;;;;;;-0.40;100.00;99679.50;4942841;29;20848;-86
2021/12/19 01:40:21;;;;;;;13.47;7.20;;;;;;;0.93;100.00;99887.31;4942970;29;20180;-87
2021/12/19 01:42:50;;;;;;;12.33;6.57;;;;;;;0.90;100.00;99895.41;4943004;29;20219;-86
2021/12/19 01:45:32;;;;;;;15.13;6.93;;;;;;;-1.48;100.00;99501.41;4942677;29;20416;-87
2021/12/19 01:48:00;;;;;;;13.63;6.53;;;;;;;1.10;100.00;99932.91;4939133;29;20434;-87
2021/12/19 01:50:26;;;;;;;16.77;6.83;;;;;;;-1.03;100.00;99565.22;4944427;29;20405;-87
2021/12/19 01:52:52;;;;;;;16.87;7.80;;;;;;;-0.23;100.00;99686.88;4932889;29;20445;-87
2021/12/19 01:55:19;;;;;;;12.27;6.20;;;;;;;-1.66;100.00;99453.47;4950234;29;20408;-86
2021/12/19 01:57:45;;;;;;;15.10;7.20;;;;;;;-0.53;100.00;99636.00;4946166;29;20256;-87
2021/12/19 02:00:29;;;;;;;15.10;7.03;;;;;;;-0.85;100.00;99575.94;4942088;29;20906;-86
2021/12/19 02:02:55;;;;;;;14.30;7.23;;;;;;;0.81;100.00;99851.34;4925849;29;20232;-86
2021/12/19 02:05:22;;;;;;;15.53;7.50;;;;;;;0.53;100.00;99801.56;4943149;29;20933;-86
2021/12/19 02:07:48;;;;;;;16.13;7.20;;;;;;;1.22;100.00;99910.69;4925724;29;20432;-86
2021/12/19 02:10:19;;;;;;;19.17;9.47;;;;;;;-0.81;100.00;99573.88;4933104;29;20799;-86
2021/12/19 02:12:47;;;;;;;34.57;16.37;;;;;;;0.40;100.00;99806.22;4954789;29;20165;-87
2021/12/19 02:15:17;;;;;;;19.17;8.93;;;;;;;-0.25;100.00;99714.84;4955989;29;20393;-88
2021/12/19 02:17:43;;;;;;;14.47;7.33;;;;;;;-1.10;100.00;99565.41;4951209;29;20482;-87
2021/12/19 02:20:10;;;;;;;16.03;7.77;;;;;;;-1.06;100.00;99551.63;4928235;29;20413;-86
2021/12/19 02:22:38;;;;;;;16.27;8.10;;;;;;;-1.18;100.00;99540.59;4927110;29;20295;-86
2021/12/19 02:25:04;;;;;;;13.53;7.00;;;;;;;-1.06;100.00;99554.13;4941838;29;20448;-86
2021/12/19 02:27:29;;;;;;;13.90;7.77;;;;;;;-2.43;100.00;99295.09;4941451;29;20696;-86
2021/12/19 02:29:58;;;;;;;16.97;8.43;;;;;;;-1.58;100.00;99415.34;4924980;29;20922;-87
2021/12/19 02:32:28;;;;;;;13.53;6.77;;;;;;;0.89;100.00;99845.41;4922932;29;20173;-86
2021/12/19 02:34:56;;;;;;;17.33;8.10;;;;;;;-0.22;100.00;99675.31;4948214;29;20406;-86
2021/12/19 02:48:15;;;;;;;21.37;7.97;;;;;;;0.78;100.00;99803.72;4944032;29;20468;-86
2021/12/19 02:50:49;;;;;;;15.63;7.43;;;;;;;0.58;100.00;99755.53;4944227;29;20408;-86
2021/12/19 02:53:23;;;;;;;11.53;6.07;;;;;;;1.20;100.00;99862.31;4924815;29;20418;-86
2021/12/19 02:55:50;;;;;;;17.23;7.07;;;;;;;-0.87;100.00;99507.81;4942071;29;20452;-86
2021/12/19 02:58:15;;;;;;;15.90;8.73;;;;;;;0.58;100.00;99770.47;4924595;29;20492;-88
2021/12/19 03:00:41;;;;;;;19.40;9.37;;;;;;;-1.92;100.00;99349.41;4941373;29;20398;-86
2021/12/19 03:03:09;;;;;;;18.67;9.43;;;;;;;-0.97;100.00;99515.22;4943044;29;20196;-87
2021/12/19 03:05:34;;;;;;;18.97;9.10;;;;;;;-0.23;100.00;99593.97;4925904;29;20184;-86
2021/12/19 03:08:02;;;;;;;17.10;8.07;;;;;;;-0.37;100.00;99594.34;4942422;29;20425;-87
2021/12/19 03:13:19;;;;;;;14.33;7.70;;;;;;;-0.45;100.00;99615.19;4942416;29;20465;-86
2021/12/19 03:18:33;;;;;;;17.57;8.33;;;;;;;0.20;100.00;99711.44;4941745;29;20404;-86
2021/12/19 03:20:59;;;;;;;15.53;8.57;;;;;;;0.70;100.00;99790.59;4942583;29;20408;-86
2021/12/19 03:23:24;;;;;;;17.37;8.43;;;;;;;-0.24;100.00;99636.97;4924072;29;20485;-87
2021/12/19 03:25:51;;;;;;;16.90;7.87;;;;;;;-0.24;100.00;99630.38;4924254;29;20575;-86
2021/12/19 03:28:17;;;;;;;14.00;7.33;;;;;;;-0.36;100.00;99625.94;4924707;29;20266;-87
2021/12/19 03:30:44;;;;;;;14.13;7.80;;;;;;;-1.12;100.00;99469.09;4939474;29;20413;-86
2021/12/19 03:33:11;;;;;;;16.17;7.70;;;;;;;-1.06;100.00;99510.28;4923930;29;20212;-86
2021/12/19 03:35:37;;;;;;;12.93;6.60;;;;;;;-1.46;100.00;99420.56;4941201;29;20479;-87
2021/12/19 03:38:05;;;;;;;15.57;7.93;;;;;;;-2.92;100.00;99146.09;4924455;29;20443;-87
2021/12/19 03:43:22;;;;;;;16.13;7.37;;;;;;;-1.63;100.00;99380.94;4927306;29;20497;-86
2021/12/19 03:45:49;;;;;;;12.23;6.07;;;;;;;0.96;100.00;99833.63;4927759;29;20432;-86
2021/12/19 03:48:16;;;;;;;12.47;6.37;;;;;;;1.14;100.00;99840.22;4912303;29;20483;-86
2021/12/19 03:50:46;;;;;;;14.13;7.60;;;;;;;1.16;100.00;99831.25;4852054;29;20460;-86
2021/12/19 03:53:13;;;;;;;13.77;7.20;;;;;;;0.93;100.00;99810.06;4879004;29;20536;-86
2021/12/19 03:55:38;;;;;;;13.80;7.50;;;;;;;1.03;100.00;99807.63;4884972;29;20958;-86
2021/12/19 03:58:04;;;;;;;15.93;7.17;;;;;;;-2.90;100.00;99156.09;4890236;29;20493;-85
2021/12/19 04:00:32;;;;;;;13.90;6.97;;;;;;;-3.08;100.00;99126.47;4868490;29;20210;-86
2021/12/19 04:03:03;;;;;;;13.23;6.53;;;;;;;0.76;100.00;99767.84;4883713;29;20459;-87
2021/12/19 04:05:29;;;;;;;14.13;7.33;;;;;;;-1.65;100.00;99348.56;4882814;29;20515;-86
2021/12/19 04:07:56;;;;;;;14.27;7.30;;;;;;;-0.13;100.00;99584.06;4888635;29;20432;-86
2021/12/19 04:10:22;;;;;;;22.70;11.27;;;;;;;-0.96;100.00;99428.38;4871079;29;20317;-87
2021/12/19 04:12:49;;;;;;;27.30;13.27;;;;;;;0.04;100.00;99633.69;4866471;29;20438;-86
2021/12/19 04:15:15;;;;;;;16.33;8.77;;;;;;;1.19;100.00;99811.56;4881545;29;20412;-86
2021/12/19 04:17:41;;;;;;;12.83;6.80;;;;;;;0.69;100.00;99744.00;4865464;29;20515;-86
2021/12/19 04:20:07;;;;;;;11.63;6.10;;;;;;;-0.65;100.00;99502.41;4880473;29;20506;-86
2021/12/19 04:22:33;;;;;;;12.43;7.40;;;;;;;0.97;100.00;99779.66;4903263;29;20206;-86
2021/12/19 04:24:58;;;;;;;11.50;6.40;;;;;;;-0.94;100.00;99489.03;4892248;29;20438;-87
2021/12/19 04:27:27;;;;;;;13.17;7.07;;;;;;;0.75;100.00;99761.97;4886715;29;20683;-87
2021/12/19 04:29:53;;;;;;;12.23;6.27;;;;;;;1.13;100.00;99820.13;4885479;29;21130;-87
2021/12/19 04:32:25;;;;;;;10.80;6.00;;;;;;;-1.17;100.00;99404.16;4901967;29;20510;-86
2021/12/19 04:34:52;;;;;;;12.27;5.97;;;;;;;0.80;100.00;99768.25;4902185;29;20436;-86
2021/12/19 04:38:03;;;;;;;14.47;7.83;;;;;;;0.70;100.00;99748.25;4907066;29;20427;-87
2021/12/19 04:40:26;;;;;;;14.43;7.53;;;;;;;0.22;100.00;99662.66;4898896;29;20246;-87
2021/12/19 05:15:08;;;;;;;15.53;8.57;;;;;;;0.67;100.00;99764.53;4886975;29;20435;-86
2021/12/19 05:17:34;;;;;;;14.43;8.03;;;;;;;0.02;100.00;99665.03;4889869;29;20420;-85
2021/12/19 05:20:10;;;;;;;17.63;8.80;;;;;;;-0.97;100.00;99500.31;4888992;29;20431;-87
2021/12/19 05:22:45;;;;;;;16.20;7.23;;;;;;;-0.68;100.00;99565.88;4872502;29;20601;-87
2021/12/19 05:25:17;;;;;;;18.97;10.20;;;;;;;-0.81;100.00;99561.44;4890510;29;20443;-86
2021/12/19 05:27:54;;;;;;;17.33;8.03;;;;;;;0.14;100.00;99707.56;4891742;29;20448;-86
2021/12/19 05:30:22;;;;;;;18.63;10.60;;;;;;;0.30;100.00;99730.56;4872401;29;20499;-86
2021/12/19 05:32:51;;;;;;;19.90;11.07;;;;;;;-0.87;100.00;99517.75;4886434;29;20544;-86
2021/12/19 05:35:27;;;;;;;19.40;10.37;;;;;;;0.64;100.00;99786.69;4888614;29;20431;-87
2021/12/19 05:46:06;;;;;;;28.50;13.87;;;;;;;0.12;100.00;99656.75;4910490;29;20453;-87
2021/12/19 05:48:31;;;;;;;18.53;9.43;;;;;;;0.68;100.00;99752.25;4895987;29;20427;-87
2021/12/19 05:50:57;;;;;;;17.97;9.47;;;;;;;-0.34;100.00;99589.66;4895568;29;20463;-87
2021/12/19 05:53:25;;;;;;;12.07;6.47;;;;;;;0.16;100.00;99652.19;4912311;29;20175;-86
2021/12/19 05:55:51;;;;;;;15.97;8.30;;;;;;;-0.56;100.00;99552.06;4895210;29;20206;-88
2021/12/19 05:58:16;;;;;;;11.13;5.97;;;;;;;-2.66;100.00;99218.66;4910436;29;20415;-87
2021/12/19 06:00:42;;;;;;;14.20;7.63;;;;;;;-0.20;100.00;99609.16;4896933;29;20254;-88
2021/12/19 06:03:07;;;;;;;14.63;7.50;;;;;;;-2.81;100.00;99170.22;4899940;29;20199;-87
2021/12/19 06:05:33;;;;;;;18.17;8.53;;;;;;;-4.19;100.00;98933.97;4898750;29;20174;-88
2021/12/19 06:07:59;;;;;;;16.77;8.57;;;;;;;0.42;100.00;99727.53;4915162;29;20231;-86
2021/12/19 06:10:28;;;;;;;27.60;14.50;;;;;;;-3.18;100.00;99094.19;4901703;29;20175;-87
2021/12/19 06:12:53;;;;;;;18.97;9.67;;;;;;;-2.85;100.00;99149.97;4916641;29;20167;-87
2021/12/19 06:15:19;;;;;;;13.57;7.17;;;;;;;-1.44;100.00;99379.34;4899262;29;20440;-85
2021/12/19 06:17:45;;;;;;;15.90;8.13;;;;;;;-2.38;99.40;99182.38;4894567;29;20171;-87
2021/12/19 06:20:13;;;;;;;15.20;9.23;;;;;;;-0.66;99.19;99470.84;4906968;29;20186;-88
2021/12/19 06:22:39;;;;;;;14.53;8.30;;;;;;;-2.92;98.05;99053.59;4905872;29;20454;-88
2021/12/19 06:25:06;;;;;;;13.33;6.83;;;;;;;1.86;97.42;99787.34;4915141;29;20415;-86
2021/12/19 06:27:31;;;;;;;13.13;7.07;;;;;;;-2.49;95.74;98993.13;4901983;29;20491;-86
2021/12/19 06:29:57;;;;;;;13.43;6.70;;;;;;;0.36;93.47;99423.25;4914926;29;20415;-88
2021/12/19 06:32:23;;;;;;;12.03;6.70;;;;;;;1.22;91.72;99505.91;4919225;29;20167;-88
2021/12/19 06:34:48;;;;;;;14.40;7.53;;;;;;;-0.97;89.91;99113.66;4900864;29;20242;-86
2021/12/19 06:37:14;;;;;;;15.03;7.87;;;;;;;-1.70;90.82;99001.53;4897985;29;20179;-87
2021/12/19 06:39:40;;;;;;;12.83;7.00;;;;;;;-2.46;91.79;98985.94;4901185;29;20155;-86
2021/12/19 06:42:13;;;;;;;11.00;5.23;;;;;;;-0.70;93.53;99316.34;4895135;29;20194;-86
2021/12/19 06:44:38;;;;;;;14.37;7.90;;;;;;;-1.68;93.32;99119.13;4894349;29;20502;-88
2021/12/19 06:47:05;;;;;;;12.83;6.83;;;;;;;-1.70;93.10;99101.63;4892419;29;20514;-86
2021/12/19 06:49:31;;;;;;;24.30;13.10;;;;;;;2.10;93.61;99743.56;4889064;29;20338;-87
2021/12/19 06:51:56;;;;;;;25.33;13.33;;;;;;;-0.06;92.96;99369.94;4892302;29;20422;-86
2021/12/19 06:54:22;;;;;;;14.33;7.90;;;;;;;-0.80;90.79;99165.63;4890231;29;20167;-87
2021/12/19 06:56:48;;;;;;;26.07;12.07;;;;;;;0.28;84.71;99008.56;4911328;29;20167;-87
2021/12/19 06:59:14;;;;;;;20.20;9.03;;;;;;;5.72;78.63;99676.41;4921232;29;20202;-86
2021/12/19 07:01:41;;;;;;;28.37;11.47;;;;;;;4.57;73.93;99222.22;4911062;29;20426;-88
2021/12/19 07:04:09;;;;;;;18.73;10.63;;;;;;;3.55;71.27;99042.81;4894645;29;20225;-87
2021/12/19 07:06:35;;;;;;;16.80;8.47;;;;;;;4.01;69.29;99146.78;4913435;29;20439;-88
2021/12/19 07:09:01;;;;;;;14.50;8.27;;;;;;;2.67;71.68;99045.16;4898830;29;20449;-87
2021/12/19 07:11:27;;;;;;;13.47;7.53;;;;;;;3.98;69.08;99203.31;4932726;29;20657;-86
2021/12/19 07:13:53;;;;;;;13.00;7.17;;;;;;;5.56;69.53;99437.63;4930816;29;20433;-89
2021/12/19 07:16:19;;;;;;;14.63;8.27;;;;;;;2.38;71.91;99031.56;4912788;29;20426;-87
2021/12/19 07:18:44;;;;;;;16.40;7.60;;;;;;;3.95;72.19;99349.22;4914112;29;20184;-88
2021/12/19 07:21:10;;;;;;;20.20;11.20;;;;;;;5.33;70.63;99452.09;4910666;29;20189;-87
2021/12/19 07:23:36;;;;;;;24.60;12.50;;;;;;;3.59;70.13;99169.00;4922996;29;20214;-87
2021/12/19 07:26:02;;;;;;;25.37;13.07;;;;;;;4.03;72.05;99358.13;4913097;29;20422;-88
2021/12/19 07:28:28;;;;;;;14.30;8.10;;;;;;;3.58;74.81;99445.06;4937235;29;20182;-85
2021/12/19 07:30:56;;;;;;;8.33;4.80;;;;;;;2.69;79.51;99586.78;5081398;23;20684;-85
2021/12/19 07:33:22;;;;;;;12.53;6.63;;;;;;;1.53;81.40;99371.34;4912496;29;20209;-88
2021/12/19 07:35:49;;;;;;;14.57;7.33;;;;;;;3.41;82.96;99753.22;4913572;29;20438;-88
2021/12/19 07:38:25;;;;;;;11.77;6.70;;;;;;;3.26;83.78;99754.56;4931135;29;20217;-88
2021/12/19 07:40:56;;;;;;;14.10;7.30;;;;;;;1.10;83.14;99343.75;4921650;29;20425;-89
2021/12/19 07:43:31;;;;;;;10.87;5.90;;;;;;;1.92;82.54;99432.56;4925221;29;20502;-90
2021/12/19 07:45:56;;;;;;;11.03;6.30;;;;;;;2.26;81.53;99506.78;4914199;29;20444;-89
2021/12/19 07:48:22;;;;;;;11.00;6.37;;;;;;;1.57;82.08;99352.47;4907771;29;20434;-89
2021/12/19 07:50:48;;;;;;;12.70;6.17;;;;;;;0.98;81.44;99300.44;4907931;29;20179;-87
2021/12/19 07:53:13;;;;;;;36.07;16.23;;;;;;;0.83;81.43;99202.94;4907553;29;20537;-89
2021/12/19 07:55:39;;;;;;;12.30;6.03;;;;;;;0.50;80.62;99193.69;4911549;29;20193;-88
2021/12/19 07:58:04;;;;;;;15.00;6.73;;;;;;;1.44;81.30;99330.69;4921262;29;20227;-89
2021/12/19 08:00:30;;;;;;;18.63;9.13;;;;;;;-0.47;81.56;98982.72;4920327;29;20165;-88
2021/12/19 08:02:59;;;;;;;84.93;28.67;;;;;;;0.40;80.95;99071.75;4912649;29;20227;-88
2021/12/19 08:05:25;;;;;;;28.77;11.13;;;;;;;0.39;79.41;99076.59;4945731;29;20589;-89
2021/12/19 08:07:56;;;;;;;15.17;8.63;;;;;;;0.40;79.99;99099.13;4947571;29;20460;-88
2021/12/19 08:12:48;;;;;;;11.10;6.43;;;;;;;0.32;78.82;99010.56;4965741;29;20984;-87
2021/12/19 08:15:15;;;;;;;11.60;6.27;;;;;;;2.02;79.11;99341.00;4949958;29;20448;-88
2021/12/19 08:17:41;;;;;;;14.53;7.73;;;;;;;0.59;78.79;99062.44;4949346;29;20412;-87
2021/12/19 08:20:09;;;;;;;44.50;20.77;;;;;;;4.37;79.54;99686.19;4946417;29;20450;-88
2021/12/19 08:22:38;;;;;;;94.73;41.57;;;;;;;2.62;78.38;99333.81;4933573;29;20231;-88
2021/12/19 08:25:05;;;;;;;18.23;9.57;;;;;;;1.94;78.46;99238.84;4967942;29;20444;-90
2021/12/19 08:27:33;;;;;;;19.23;9.53;;;;;;;0.58;77.69;99003.41;4969867;29;20487;-88
2021/12/19 08:29:59;;;;;;;12.40;7.53;;;;;;;3.05;77.41;99402.81;4959386;29;20397;-87
2021/12/19 08:32:28;;;;;;;20.73;9.67;;;;;;;0.25;78.13;98926.19;4958080;29;20923;-88
2021/12/19 08:34:54;;;;;;;21.77;10.67;;;;;;;1.21;77.19;98988.16;5193319;23;20483;-91
2021/12/19 08:37:20;;;;;;;12.17;6.53;;;;;;;0.47;77.52;98985.94;4973987;29;20421;-88
2021/12/19 08:39:46;;;;;;;12.57;7.53;;;;;;;4.91;78.43;99687.59;4954555;29;20443;-88
2021/12/19 08:42:12;;;;;;;13.13;6.37;;;;;;;3.43;78.01;99426.47;4956144;28;20191;-93
2021/12/19 08:49:48;;;;;;;12.77;7.50;;;;;;;2.66;77.44;99269.22;5192878;23;20481;-88
2021/12/19 08:52:14;;;;;;;11.23;5.47;;;;;;;4.03;77.10;99490.00;4953813;29;20432;-90
2021/12/19 08:54:39;;;;;;;19.73;8.90;;;;;;;3.70;77.01;99410.88;4955207;29;20204;-88
2021/12/19 08:57:08;;;;;;;11.17;5.90;;;;;;;1.17;75.21;98982.06;4952867;29;20186;-88
2021/12/19 08:59:34;;;;;;;12.40;6.70;;;;;;;1.00;74.65;98926.03;4953120;29;20215;-87
2021/12/19 09:02:01;;;;;;;17.77;8.23;;;;;;;1.75;75.53;99070.34;4955883;29;20420;-88
2021/12/19 09:04:30;;;;;;;16.67;8.80;;;;;;;1.64;75.52;98968.91;4956084;29;20189;-88
2021/12/19 09:07:18;;;;;;;95.00;48.13;;;;;;;3.72;75.31;99289.19;4954592;29;20395;-89
2021/12/19 09:09:45;;;;;;;21.57;9.23;;;;;;;5.99;74.58;99617.97;4916069;29;20425;-89
2021/12/19 09:12:11;;;;;;;13.87;7.13;;;;;;;4.13;74.72;99378.03;4915052;29;20430;-88
2021/12/19 09:14:38;;;;;;;16.67;8.47;;;;;;;2.12;74.28;99010.53;4914117;29;20534;-89
2021/12/19 09:17:04;;;;;;;15.33;7.97;;;;;;;4.87;74.40;99477.44;4917470;29;20166;-90
2021/12/19 09:19:33;;;;;;;16.73;9.47;;;;;;;5.29;75.02;99570.63;4917872;29;20414;-88
2021/12/19 09:21:59;;;;;;;13.20;6.80;;;;;;;4.03;73.97;99353.13;4911624;29;20410;-87
2021/12/19 09:24:24;;;;;;;17.33;7.97;;;;;;;2.20;74.40;99072.72;4922613;29;20477;-87
2021/12/19 09:26:50;;;;;;;20.97;10.10;;;;;;;3.68;73.49;99237.19;4911779;29;20177;-87
2021/12/19 09:29:16;;;;;;;11.83;6.50;;;;;;;4.49;73.50;99371.22;4924271;29;20249;-89
2021/12/19 09:31:41;;;;;;;13.13;6.60;;;;;;;1.86;74.14;98992.88;4914285;29;20561;-88
2021/12/19 09:34:07;;;;;;;13.33;7.77;;;;;;;4.95;74.83;99428.66;4914962;29;20594;-88
2021/12/19 09:36:34;;;;;;;16.50;10.73;;;;;;;3.45;73.72;99184.72;4954956;29;20165;-88
2021/12/19 09:39:00;;;;;;;12.80;7.40;;;;;;;2.45;74.38;98985.38;4945138;28;20437;-89
2021/12/19 09:41:33;;;;;;;8.80;4.40;;;;;;;4.20;73.97;99313.31;4971569;28;20427;-87
2021/12/19 09:44:03;;;;;;;14.20;7.17;;;;;;;5.71;74.14;99542.44;4970424;28;20987;-88
2021/12/19 09:46:31;;;;;;;22.80;10.90;;;;;;;2.84;74.28;98968.06;4988543;28;20403;-88
2021/12/19 09:48:57;;;;;;;12.77;7.13;;;;;;;3.62;73.53;99176.72;4969250;28;20463;-88
2021/12/19 09:51:22;;;;;;;12.43;7.17;;;;;;;3.40;74.50;99108.50;4985738;28;20438;-88
2021/12/19 09:53:48;;;;;;;22.73;12.20;;;;;;;1.95;74.62;98844.63;4967749;28;20275;-88
2021/12/19 09:56:14;;;;;;;13.27;7.27;;;;;;;1.93;74.55;98848.66;4985601;28;20188;-87
2021/12/19 09:58:40;;;;;;;19.80;10.93;;;;;;;2.55;73.69;98930.31;4969173;28;20262;-89
2021/12/19 10:01:09;;;;;;;18.57;8.97;;;;;;;3.79;74.03;99136.13;4968197;28;20443;-88
2021/12/19 10:03:35;;;;;;;10.70;6.17;;;;;;;5.62;74.46;99460.63;4972775;28;20211;-87
2021/12/19 10:06:28;;;;;;;13.30;7.70;;;;;;;5.93;73.95;99484.44;4976566;28;20404;-89
2021/12/19 10:09:09;;;;;;;21.23;10.73;;;;;;;6.30;73.01;99483.41;4972476;28;20417;-88
2021/12/19 10:12:10;;;;;;;17.57;9.43;;;;;;;5.01;72.86;99266.00;4968399;28;20415;-88
2021/12/19 10:14:34;;;;;;;18.07;10.33;;;;;;;5.51;73.49;99398.81;4985599;28;20450;-88
2021/12/19 10:17:03;;;;;;;15.60;9.17;;;;;;;4.26;73.74;99185.97;4990227;28;20466;-89
2021/12/19 10:19:47;;;;;;;14.20;7.40;;;;;;;5.18;72.73;99338.19;4990926;28;20422;-88
2021/12/19 10:22:26;;;;;;;22.97;11.50;;;;;;;5.97;73.41;99466.25;4971333;28;20407;-87
2021/12/19 10:24:53;;;;;;;14.20;8.00;;;;;;;5.12;73.33;99269.19;4969323;28;20419;-88
2021/12/19 10:27:36;;;;;;;11.53;6.83;;;;;;;5.44;72.30;99288.78;4970177;28;20407;-88
2021/12/19 10:30:19;;;;;;;11.80;6.20;;;;;;;6.36;72.78;99457.78;4970356;28;20458;-88
2021/12/19 10:32:58;;;;;;;22.17;10.57;;;;;;;6.32;74.23;99465.91;4984075;28;20391;-89
2021/12/19 10:35:34;;;;;;;22.03;11.23;;;;;;;6.55;72.75;99455.59;4984673;28;20865;-88
2021/12/19 10:38:02;;;;;;;20.90;10.00;;;;;;;6.60;73.65;99453.34;4988199;28;20492;-88
2021/12/19 10:40:28;;;;;;;25.50;12.97;;;;;;;6.70;73.57;99441.44;4968265;28;20412;-89
2021/12/19 10:42:59;;;;;;;23.23;11.63;;;;;;;5.54;72.58;99194.03;4969172;28;20450;-87
2021/12/19 10:45:45;;;;;;;19.23;9.20;;;;;;;6.85;72.40;99432.25;4986419;28;20412;-89
2021/12/19 10:48:25;;;;;;;51.90;22.50;;;;;;;6.60;73.80;99421.53;4983957;28;20200;-87
2021/12/19 10:51:10;;;;;;;14.90;8.80;;;;;;;6.74;72.63;99427.38;4985520;28;20430;-88
2021/12/19 10:53:38;;;;;;;12.37;7.00;;;;;;;5.17;73.10;99258.66;4986800;28;20391;-89
2021/12/19 10:56:14;;;;;;;16.70;8.93;;;;;;;3.70;73.13;98930.31;4972084;28;20924;-88
2021/12/19 10:58:52;;;;;;;28.30;12.73;;;;;;;6.32;73.38;99400.53;4971065;28;20414;-88
2021/12/19 11:01:31;;;;;;;19.47;8.30;;;;;;;6.36;73.38;99405.88;4974431;28;20727;-88
2021/12/19 11:03:59;;;;;;;20.57;11.10;;;;;;;6.83;73.08;99365.91;4975673;28;20431;-87
2021/12/19 11:06:35;;;;;;;18.57;9.70;;;;;;;6.94;71.58;99411.81;4983139;28;20507;-88
2021/12/19 11:09:23;;;;;;;17.67;10.40;;;;;;;5.51;72.06;99105.97;4999881;28;20423;-88
2021/12/19 11:11:59;;;;;;;14.07;7.83;;;;;;;6.48;73.57;99371.38;4972815;28;20415;-89
2021/12/19 11:14:31;;;;;;;18.53;10.17;;;;;;;6.77;73.01;99373.09;4969686;28;20416;-87
2021/12/19 11:17:12;;;;;;;19.23;10.77;;;;;;;3.95;72.65;98913.53;4968868;28;20414;-88
2021/12/19 11:19:39;;;;;;;21.10;9.93;;;;;;;6.50;73.24;99313.66;4969836;28;20167;-89
2021/12/19 11:22:05;;;;;;;19.13;11.17;;;;;;;5.62;73.42;99145.13;4985395;28;20411;-88
2021/12/19 11:24:31;;;;;;;17.63;10.10;;;;;;;3.27;73.88;98780.81;4968805;28;20448;-89
2021/12/19 11:27:00;;;;;;;19.20;10.03;;;;;;;6.77;73.46;99390.69;4967570;28;20204;-89
2021/12/19 11:29:26;;;;;;;15.67;9.33;;;;;;;6.70;72.94;99362.59;4969704;28;20218;-90
2021/12/19 11:32:00;;;;;;;15.97;9.37;;;;;;;6.75;74.11;99338.56;4965196;28;20901;-88
2021/12/19 11:34:44;;;;;;;14.67;7.40;;;;;;;5.55;73.17;99117.06;4970861;28;20447;-88
2021/12/19 11:37:25;;;;;;;21.10;10.90;;;;;;;4.75;73.47;98960.13;5014803;23;20203;-89
2021/12/19 11:39:53;;;;;;;16.63;8.53;;;;;;;6.82;72.68;99302.91;4932550;23;20217;-88
2021/12/19 11:42:27;;;;;;;17.03;8.40;;;;;;;6.70;72.89;99309.75;4977028;23;20230;-88
2021/12/19 11:45:25;;;;;;;18.23;10.00;;;;;;;4.97;72.07;99033.31;4954311;29;20215;-87
2021/12/19 11:47:57;;;;;;;14.50;6.80;;;;;;;3.47;72.81;98756.25;5027412;23;20500;-88
2021/12/19 11:50:32;;;;;;;19.17;10.07;;;;;;;6.72;73.92;99298.13;4948841;29;20424;-87
2021/12/19 11:53:19;;;;;;;12.97;7.50;;;;;;;5.58;72.71;99127.25;4951051;29;20495;-87
2021/12/19 11:55:46;;;;;;;15.43;7.97;;;;;;;5.33;74.00;99075.63;4953314;29;20180;-88
2021/12/19 11:58:12;;;;;;;17.23;9.43;;;;;;;6.88;74.02;99280.59;4950006;29;20428;-89
2021/12/19 12:00:43;;;;;;;17.50;8.17;;;;;;;6.22;73.58;99137.75;4950485;29;20185;-88
2021/12/19 12:03:11;;;;;;;13.43;7.43;;;;;;;6.98;72.13;99276.16;4952731;28;20200;-88
2021/12/19 12:05:50;;;;;;;22.57;9.50;;;;;;;5.49;69.98;98996.22;4960610;28;20249;-88
2021/12/19 12:08:25;;;;;;;20.23;9.00;;;;;;;6.80;70.14;99266.72;5182738;23;20247;31
2021/12/19 12:10:58;;;;;;;20.53;9.73;;;;;;;6.93;71.57;99246.50;4917148;29;20486;-89
2021/12/19 12:13:42;;;;;;;16.57;9.23;;;;;;;6.56;72.64;99189.91;4924307;29;20202;-86
2021/12/19 12:16:35;;;;;;;13.63;7.17;;;;;;;6.78;74.03;99248.19;4971876;23;20247;-89
2021/12/19 12:21:42;;;;;;;16.80;8.83;;;;;;;7.00;74.27;99251.09;5094450;23;20246;-89
2021/12/19 12:24:17;;;;;;;19.00;10.33;;;;;;;3.74;74.15;98716.97;4956755;28;20295;-89
2021/12/19 12:27:02;;;;;;;29.70;14.97;;;;;;;7.22;74.20;99256.53;4967325;28;20210;-87
2021/12/19 12:29:28;;;;;;;20.60;11.50;;;;;;;6.43;73.13;99105.38;4985434;28;20637;-88
2021/12/19 12:31:54;;;;;;;17.77;9.87;;;;;;;5.44;73.48;98927.31;4967585;28;20192;-87
2021/12/19 12:34:20;;;;;;;19.23;9.57;;;;;;;6.33;74.06;99093.97;4951858;29;20188;-87
2021/12/19 12:36:46;;;;;;;28.27;13.80;;;;;;;4.95;74.69;98874.38;4946332;29;20180;-87
2021/12/19 12:39:21;;;;;;;25.00;12.23;;;;;;;5.48;74.04;98969.38;4945472;29;20184;-89
2021/12/19 12:44:18;;;;;;;31.33;17.07;;;;;;;5.14;73.97;98859.56;4965059;28;20200;-89
2021/12/19 12:46:44;;;;;;;23.87;11.77;;;;;;;4.96;73.49;98845.16;4948115;29;20180;-88
2021/12/19 12:49:15;;;;;;;26.60;13.37;;;;;;;5.68;74.16;98946.25;4968372;28;20240;-88
2021/12/19 12:51:48;;;;;;;34.07;17.47;;;;;;;7.29;75.15;99203.19;4950941;29;20566;-88